sensor_id;sensor_type;location;lat;lon;timestamp;pressure;altitude;pressure_sealevel;temperature;humidity
62680;BME280;68213;40.528;44.712;2023-03-13T00:00:23;80300.28;;;1.92;57.56
62680;BME280;68213;40.528;44.712;2023-03-13T00:01:30;80302.41;;;2.03;57.42
62680;BME280;68213;40.528;44.712;2023-03-13T00:02:31;80302.34;;;2.11;57.16
62680;BME280;68213;40.528;44.712;2023-03-13T00:03:31;80297.44;;;2.15;56.92
62680;BME280;68213;40.528;44.712;2023-03-13T00:04:32;80293.56;;;2.24;56.28
62680;BME280;68213;40.528;44.712;2023-03-13T00:05:34;80296.06;;;2.32;56.15
62680;BME280;68213;40.528;44.712;2023-03-13T00:06:37;80303.09;;;2.39;56.11
62680;BME280;68213;40.528;44.712;2023-03-13T00:07:37;80296.69;;;2.40;56.24
62680;BME280;68213;40.528;44.712;2023-03-13T00:08:38;80302.31;;;2.46;55.96
62680;BME280;68213;40.528;44.712;2023-03-13T00:09:39;80306.44;;;2.49;55.73
62680;BME280;68213;40.528;44.712;2023-03-13T00:10:41;80274.50;;;2.29;55.82
62680;BME280;68213;40.528;44.712;2023-03-13T00:11:43;80302.09;;;2.52;55.54
62680;BME280;68213;40.528;44.712;2023-03-13T00:12:44;80268.38;;;2.34;55.58
62680;BME280;68213;40.528;44.712;2023-03-13T00:13:47;80295.16;;;2.54;55.40
62680;BME280;68213;40.528;44.712;2023-03-13T00:14:47;80280.78;;;2.53;55.42
62680;BME280;68213;40.528;44.712;2023-03-13T00:15:48;80281.47;;;2.54;55.54
62680;BME280;68213;40.528;44.712;2023-03-13T00:16:49;80273.25;;;2.48;55.29
62680;BME280;68213;40.528;44.712;2023-03-13T00:17:49;80278.47;;;2.58;55.08
62680;BME280;68213;40.528;44.712;2023-03-13T00:18:51;80272.78;;;2.59;55.13
62680;BME280;68213;40.528;44.712;2023-03-13T00:19:52;80281.28;;;2.69;55.06
62680;BME280;68213;40.528;44.712;2023-03-13T00:20:59;80284.28;;;2.66;55.26
62680;BME280;68213;40.528;44.712;2023-03-13T00:22:00;80279.09;;;2.66;55.26
62680;BME280;68213;40.528;44.712;2023-03-13T00:23:00;80283.28;;;2.61;55.33
62680;BME280;68213;40.528;44.712;2023-03-13T00:24:01;80280.78;;;2.53;55.83
62680;BME280;68213;40.528;44.712;2023-03-13T00:25:02;80284.59;;;2.52;55.58
62680;BME280;68213;40.528;44.712;2023-03-13T00:26:08;80278.28;;;2.46;55.88
62680;BME280;68213;40.528;44.712;2023-03-13T00:27:09;80278.06;;;2.34;56.41
62680;BME280;68213;40.528;44.712;2023-03-13T00:28:10;80283.50;;;2.28;56.40
62680;BME280;68213;40.528;44.712;2023-03-13T00:29:11;80287.97;;;2.28;56.56
62680;BME280;68213;40.528;44.712;2023-03-13T00:30:11;80276.25;;;2.27;56.57
62680;BME280;68213;40.528;44.712;2023-03-13T00:31:15;80280.06;;;2.26;56.32
62680;BME280;68213;40.528;44.712;2023-03-13T00:32:16;80277.59;;;2.28;56.47
62680;BME280;68213;40.528;44.712;2023-03-13T00:33:16;80278.31;;;2.28;56.51
62680;BME280;68213;40.528;44.712;2023-03-13T00:34:17;80277.47;;;2.26;56.33
62680;BME280;68213;40.528;44.712;2023-03-13T00:35:17;80276.78;;;2.25;56.49
62680;BME280;68213;40.528;44.712;2023-03-13T00:36:24;80271.75;;;2.27;56.57
62680;BME280;68213;40.528;44.712;2023-03-13T00:37:25;80272.41;;;2.28;56.50
62680;BME280;68213;40.528;44.712;2023-03-13T00:38:29;80276.00;;;2.32;56.67
62680;BME280;68213;40.528;44.712;2023-03-13T00:39:29;80278.59;;;2.32;56.38
62680;BME280;68213;40.528;44.712;2023-03-13T00:40:30;80276.84;;;2.35;56.15
62680;BME280;68213;40.528;44.712;2023-03-13T00:41:32;80279.28;;;2.33;56.66
62680;BME280;68213;40.528;44.712;2023-03-13T00:42:33;80277.22;;;2.31;56.31
62680;BME280;68213;40.528;44.712;2023-03-13T00:43:34;80273.66;;;2.27;56.45
62680;BME280;68213;40.528;44.712;2023-03-13T00:44:35;80258.78;;;2.10;56.47
62680;BME280;68213;40.528;44.712;2023-03-13T00:45:35;80273.78;;;2.29;56.42
62680;BME280;68213;40.528;44.712;2023-03-13T00:46:36;80271.97;;;2.21;56.89
62680;BME280;68213;40.528;44.712;2023-03-13T00:47:37;80277.31;;;2.24;56.46
62680;BME280;68213;40.528;44.712;2023-03-13T00:48:38;80276.25;;;2.27;56.33
62680;BME280;68213;40.528;44.712;2023-03-13T00:49:40;80272.56;;;2.30;56.39
62680;BME280;68213;40.528;44.712;2023-03-13T00:50:41;80273.94;;;2.31;56.11
62680;BME280;68213;40.528;44.712;2023-03-13T00:51:41;80274.56;;;2.21;56.40
62680;BME280;68213;40.528;44.712;2023-03-13T00:52:42;80268.31;;;2.07;57.21
62680;BME280;68213;40.528;44.712;2023-03-13T00:53:45;80278.84;;;1.92;58.31
62680;BME280;68213;40.528;44.712;2023-03-13T00:54:45;80275.19;;;1.95;57.68
62680;BME280;68213;40.528;44.712;2023-03-13T00:56:01;80272.56;;;1.77;58.12
62680;BME280;68213;40.528;44.712;2023-03-13T00:57:02;80284.47;;;1.80;58.17
62680;BME280;68213;40.528;44.712;2023-03-13T00:58:03;80287.91;;;1.83;57.85
62680;BME280;68213;40.528;44.712;2023-03-13T00:59:04;80282.19;;;1.84;57.95
62680;BME280;68213;40.528;44.712;2023-03-13T01:00:05;80281.88;;;1.80;57.95
62680;BME280;68213;40.528;44.712;2023-03-13T01:01:10;80298.31;;;1.75;57.95
62680;BME280;68213;40.528;44.712;2023-03-13T01:02:12;80277.22;;;1.61;58.21
62680;BME280;68213;40.528;44.712;2023-03-13T01:03:15;80293.53;;;1.71;58.40
62680;BME280;68213;40.528;44.712;2023-03-13T01:04:15;80292.31;;;1.72;58.12
62680;BME280;68213;40.528;44.712;2023-03-13T01:05:16;80292.84;;;1.71;58.18
62680;BME280;68213;40.528;44.712;2023-03-13T01:06:19;80295.06;;;1.74;58.21
62680;BME280;68213;40.528;44.712;2023-03-13T01:07:20;80289.78;;;1.65;58.13
62680;BME280;68213;40.528;44.712;2023-03-13T01:09:30;80283.47;;;1.33;59.74
62680;BME280;68213;40.528;44.712;2023-03-13T01:10:30;80292.88;;;1.46;59.18
62680;BME280;68213;40.528;44.712;2023-03-13T01:11:34;80281.41;;;1.31;59.25
62680;BME280;68213;40.528;44.712;2023-03-13T01:12:35;80292.19;;;1.45;59.14
62680;BME280;68213;40.528;44.712;2023-03-13T01:13:36;80291.13;;;1.48;59.07
62680;BME280;68213;40.528;44.712;2023-03-13T01:14:37;80295.56;;;1.55;58.82
62680;BME280;68213;40.528;44.712;2023-03-13T01:15:38;80294.50;;;1.58;58.73
62680;BME280;68213;40.528;44.712;2023-03-13T01:16:39;80301.38;;;1.64;58.61
62680;BME280;68213;40.528;44.712;2023-03-13T01:17:42;80281.56;;;1.58;58.16
62680;BME280;68213;40.528;44.712;2023-03-13T01:18:49;80301.28;;;1.71;58.08
62680;BME280;68213;40.528;44.712;2023-03-13T01:19:50;80298.88;;;1.73;58.14
62680;BME280;68213;40.528;44.712;2023-03-13T01:20:51;80300.25;;;1.74;57.89
62680;BME280;68213;40.528;44.712;2023-03-13T01:21:52;80308.56;;;1.73;58.15
62680;BME280;68213;40.528;44.712;2023-03-13T01:22:56;80306.81;;;1.76;58.15
62680;BME280;68213;40.528;44.712;2023-03-13T01:23:56;80306.25;;;1.77;57.68
62680;BME280;68213;40.528;44.712;2023-03-13T01:24:57;80308.34;;;1.79;58.05
62680;BME280;68213;40.528;44.712;2023-03-13T01:25:58;80301.25;;;1.79;57.99
62680;BME280;68213;40.528;44.712;2023-03-13T01:26:59;80301.41;;;1.81;57.48
62680;BME280;68213;40.528;44.712;2023-03-13T01:27:59;80300.88;;;1.83;58.01
62680;BME280;68213;40.528;44.712;2023-03-13T01:29:00;80309.06;;;1.71;58.26
62680;BME280;68213;40.528;44.712;2023-03-13T01:30:01;80305.81;;;1.71;58.29
62680;BME280;68213;40.528;44.712;2023-03-13T01:31:35;80309.31;;;1.66;58.32
62680;BME280;68213;40.528;44.712;2023-03-13T01:32:35;80311.38;;;1.42;58.95
62680;BME280;68213;40.528;44.712;2023-03-13T01:33:36;80285.91;;;1.31;58.92
62680;BME280;68213;40.528;44.712;2023-03-13T01:34:37;80313.59;;;1.46;59.35
62680;BME280;68213;40.528;44.712;2023-03-13T01:35:42;80309.63;;;1.45;59.11
62680;BME280;68213;40.528;44.712;2023-03-13T01:36:43;80307.38;;;1.49;59.21
62680;BME280;68213;40.528;44.712;2023-03-13T01:37:44;80313.53;;;1.53;58.62
62680;BME280;68213;40.528;44.712;2023-03-13T01:38:50;80305.19;;;1.63;58.72
62680;BME280;68213;40.528;44.712;2023-03-13T01:39:50;80308.22;;;1.69;58.33
62680;BME280;68213;40.528;44.712;2023-03-13T01:40:51;80311.97;;;1.76;57.99
62680;BME280;68213;40.528;44.712;2023-03-13T01:41:52;80302.28;;;1.76;57.63
62680;BME280;68213;40.528;44.712;2023-03-13T01:44:26;80303.25;;;1.88;57.17
62680;BME280;68213;40.528;44.712;2023-03-13T01:45:53;80310.19;;;1.86;57.52
62680;BME280;68213;40.528;44.712;2023-03-13T01:46:55;80308.47;;;1.81;57.39
62680;BME280;68213;40.528;44.712;2023-03-13T01:47:56;80305.66;;;1.86;57.51
62680;BME280;68213;40.528;44.712;2023-03-13T01:49:20;80296.97;;;1.74;57.20
62680;BME280;68213;40.528;44.712;2023-03-13T01:50:22;80306.06;;;1.83;57.50
62680;BME280;68213;40.528;44.712;2023-03-13T01:52:27;80299.81;;;1.86;57.50
62680;BME280;68213;40.528;44.712;2023-03-13T01:53:32;80302.41;;;1.86;57.46
62680;BME280;68213;40.528;44.712;2023-03-13T01:54:39;80290.03;;;1.77;57.42
62680;BME280;68213;40.528;44.712;2023-03-13T01:55:42;80300.31;;;1.84;57.46
62680;BME280;68213;40.528;44.712;2023-03-13T01:56:55;80283.31;;;1.73;57.48
62680;BME280;68213;40.528;44.712;2023-03-13T01:57:58;80286.91;;;1.78;57.12
62680;BME280;68213;40.528;44.712;2023-03-13T01:58:59;80284.63;;;1.82;57.61
62680;BME280;68213;40.528;44.712;2023-03-13T02:00:12;80290.13;;;1.86;57.44
62680;BME280;68213;40.528;44.712;2023-03-13T02:01:16;80283.94;;;1.82;57.49
62680;BME280;68213;40.528;44.712;2023-03-13T02:02:18;80288.44;;;1.81;57.52
62680;BME280;68213;40.528;44.712;2023-03-13T02:03:21;80290.19;;;1.79;57.39
62680;BME280;68213;40.528;44.712;2023-03-13T02:04:22;80285.69;;;1.79;57.65
62680;BME280;68213;40.528;44.712;2023-03-13T02:05:25;80289.50;;;1.78;57.96
62680;BME280;68213;40.528;44.712;2023-03-13T02:06:28;80271.81;;;1.67;57.23
62680;BME280;68213;40.528;44.712;2023-03-13T02:07:38;80295.16;;;1.84;57.45
62680;BME280;68213;40.528;44.712;2023-03-13T02:08:44;80293.63;;;1.81;57.18
62680;BME280;68213;40.528;44.712;2023-03-13T02:09:51;80288.75;;;1.85;57.36
62680;BME280;68213;40.528;44.712;2023-03-13T02:11:09;80268.47;;;1.74;56.91
62680;BME280;68213;40.528;44.712;2023-03-13T02:12:16;80292.13;;;1.96;56.91
62680;BME280;68213;40.528;44.712;2023-03-13T02:13:19;80292.41;;;2.00;56.79
62680;BME280;68213;40.528;44.712;2023-03-13T02:14:22;80292.41;;;2.00;56.56
62680;BME280;68213;40.528;44.712;2023-03-13T02:15:25;80287.94;;;2.00;56.57
62680;BME280;68213;40.528;44.712;2023-03-13T02:16:27;80280.66;;;1.99;56.47
62680;BME280;68213;40.528;44.712;2023-03-13T02:18:37;80285.34;;;2.00;56.39
62680;BME280;68213;40.528;44.712;2023-03-13T02:19:46;80265.94;;;2.01;56.11
62680;BME280;68213;40.528;44.712;2023-03-13T02:20:48;80284.88;;;2.12;56.07
62680;BME280;68213;40.528;44.712;2023-03-13T02:22:01;80290.88;;;2.14;55.96
62680;BME280;68213;40.528;44.712;2023-03-13T02:26:24;80296.41;;;2.18;55.71
62680;BME280;68213;40.528;44.712;2023-03-13T02:27:27;80288.59;;;2.18;55.99
62680;BME280;68213;40.528;44.712;2023-03-13T02:28:31;80278.84;;;2.09;55.91
62680;BME280;68213;40.528;44.712;2023-03-13T02:29:33;80300.19;;;2.17;55.86
62680;BME280;68213;40.528;44.712;2023-03-13T02:30:33;80304.00;;;2.16;55.49
62680;BME280;68213;40.528;44.712;2023-03-13T02:31:34;80303.09;;;2.21;55.85
62680;BME280;68213;40.528;44.712;2023-03-13T02:32:35;80286.47;;;2.07;55.64
62680;BME280;68213;40.528;44.712;2023-03-13T02:33:39;80300.28;;;2.27;55.32
62680;BME280;68213;40.528;44.712;2023-03-13T02:34:41;80302.19;;;2.27;55.47
62680;BME280;68213;40.528;44.712;2023-03-13T02:35:44;80299.06;;;2.28;55.26
62680;BME280;68213;40.528;44.712;2023-03-13T02:36:46;80302.31;;;2.29;55.29
62680;BME280;68213;40.528;44.712;2023-03-13T02:37:50;80300.44;;;2.29;55.54
62680;BME280;68213;40.528;44.712;2023-03-13T02:39:00;80298.66;;;2.32;55.50
62680;BME280;68213;40.528;44.712;2023-03-13T02:40:06;80306.22;;;2.37;55.48
62680;BME280;68213;40.528;44.712;2023-03-13T02:41:12;80303.84;;;2.32;55.17
62680;BME280;68213;40.528;44.712;2023-03-13T02:42:13;80291.19;;;2.18;55.45
62680;BME280;68213;40.528;44.712;2023-03-13T02:43:34;80307.81;;;2.33;55.47
62680;BME280;68213;40.528;44.712;2023-03-13T02:44:39;80307.06;;;2.40;55.27
62680;BME280;68213;40.528;44.712;2023-03-13T02:45:40;80287.47;;;2.29;55.07
62680;BME280;68213;40.528;44.712;2023-03-13T02:46:46;80302.31;;;2.29;55.42
62680;BME280;68213;40.528;44.712;2023-03-13T02:47:47;80311.31;;;2.28;55.47
62680;BME280;68213;40.528;44.712;2023-03-13T02:48:53;80311.03;;;2.24;55.98
62680;BME280;68213;40.528;44.712;2023-03-13T02:49:54;80301.50;;;2.26;55.63
62680;BME280;68213;40.528;44.712;2023-03-13T02:50:54;80297.13;;;2.29;55.87
62680;BME280;68213;40.528;44.712;2023-03-13T02:51:58;80264.50;;;2.08;55.58
62680;BME280;68213;40.528;44.712;2023-03-13T02:53:03;80294.16;;;2.32;55.46
62680;BME280;68213;40.528;44.712;2023-03-13T02:54:09;80279.13;;;2.13;55.80
62680;BME280;68213;40.528;44.712;2023-03-13T02:55:18;80303.03;;;2.12;56.33
62680;BME280;68213;40.528;44.712;2023-03-13T02:56:23;80301.56;;;2.18;56.17
62680;BME280;68213;40.528;44.712;2023-03-13T02:57:25;80301.41;;;2.16;56.19
62680;BME280;68213;40.528;44.712;2023-03-13T02:58:25;80288.59;;;2.18;55.84
62680;BME280;68213;40.528;44.712;2023-03-13T02:59:26;80289.75;;;2.25;55.86
62680;BME280;68213;40.528;44.712;2023-03-13T03:00:27;80291.81;;;2.27;55.70
62680;BME280;68213;40.528;44.712;2023-03-13T03:01:27;80290.56;;;2.28;55.60
62680;BME280;68213;40.528;44.712;2023-03-13T03:02:28;80294.25;;;2.25;55.96
62680;BME280;68213;40.528;44.712;2023-03-13T03:03:29;80292.88;;;2.24;56.18
62680;BME280;68213;40.528;44.712;2023-03-13T03:04:29;80293.63;;;2.16;56.22
62680;BME280;68213;40.528;44.712;2023-03-13T03:05:30;80296.53;;;2.03;56.62
62680;BME280;68213;40.528;44.712;2023-03-13T03:06:31;80301.31;;;1.89;57.27
62680;BME280;68213;40.528;44.712;2023-03-13T03:07:32;80304.75;;;1.92;57.12
62680;BME280;68213;40.528;44.712;2023-03-13T03:08:33;80310.56;;;1.82;57.24
62680;BME280;68213;40.528;44.712;2023-03-13T03:09:34;80288.88;;;1.70;57.50
62680;BME280;68213;40.528;44.712;2023-03-13T03:10:35;80308.81;;;1.85;57.24
62680;BME280;68213;40.528;44.712;2023-03-13T03:11:36;80305.38;;;1.82;57.46
62680;BME280;68213;40.528;44.712;2023-03-13T03:12:37;80318.47;;;1.84;57.12
62680;BME280;68213;40.528;44.712;2023-03-13T03:13:38;80316.03;;;1.86;57.32
62680;BME280;68213;40.528;44.712;2023-03-13T03:14:39;80311.69;;;1.89;57.18
62680;BME280;68213;40.528;44.712;2023-03-13T03:15:40;80314.44;;;1.91;57.17
62680;BME280;68213;40.528;44.712;2023-03-13T03:16:40;80314.06;;;1.95;57.05
62680;BME280;68213;40.528;44.712;2023-03-13T03:17:41;80314.38;;;1.99;56.66
62680;BME280;68213;40.528;44.712;2023-03-13T03:18:42;80314.69;;;2.03;56.54
62680;BME280;68213;40.528;44.712;2023-03-13T03:19:42;80314.97;;;2.07;56.36
62680;BME280;68213;40.528;44.712;2023-03-13T03:20:43;80320.34;;;2.09;56.26
62680;BME280;68213;40.528;44.712;2023-03-13T03:21:44;80319.41;;;2.14;56.30
62680;BME280;68213;40.528;44.712;2023-03-13T03:22:47;80315.75;;;2.17;56.05
62680;BME280;68213;40.528;44.712;2023-03-13T03:23:50;80315.06;;;2.17;56.14
62680;BME280;68213;40.528;44.712;2023-03-13T03:24:51;80323.16;;;2.21;56.29
62680;BME280;68213;40.528;44.712;2023-03-13T03:25:51;80324.22;;;2.18;56.28
62680;BME280;68213;40.528;44.712;2023-03-13T03:26:52;80318.34;;;2.17;56.35
62680;BME280;68213;40.528;44.712;2023-03-13T03:27:53;80313.38;;;2.12;56.48
62680;BME280;68213;40.528;44.712;2023-03-13T03:28:55;80319.41;;;2.14;56.34
62680;BME280;68213;40.528;44.712;2023-03-13T03:29:55;80318.34;;;2.00;56.96
62680;BME280;68213;40.528;44.712;2023-03-13T03:30:56;80320.75;;;1.80;57.72
62680;BME280;68213;40.528;44.712;2023-03-13T03:31:57;80319.00;;;1.83;57.42
62680;BME280;68213;40.528;44.712;2023-03-13T03:32:57;80322.22;;;1.91;56.97
62680;BME280;68213;40.528;44.712;2023-03-13T03:33:58;80323.59;;;1.92;57.11
62680;BME280;68213;40.528;44.712;2023-03-13T03:34:59;80316.59;;;2.02;56.80
62680;BME280;68213;40.528;44.712;2023-03-13T03:36:05;80246.19;;;1.53;56.46
62680;BME280;68213;40.528;44.712;2023-03-13T03:37:06;80321.88;;;2.12;56.59
62680;BME280;68213;40.528;44.712;2023-03-13T03:38:07;80321.09;;;2.19;56.13
62680;BME280;68213;40.528;44.712;2023-03-13T03:39:07;80328.03;;;2.34;55.48
62680;BME280;68213;40.528;44.712;2023-03-13T03:40:09;80314.06;;;2.47;55.17
62680;BME280;68213;40.528;44.712;2023-03-13T03:41:12;80313.91;;;2.45;55.53
62680;BME280;68213;40.528;44.712;2023-03-13T03:42:15;80321.09;;;2.54;55.20
62680;BME280;68213;40.528;44.712;2023-03-13T03:43:16;80322.75;;;2.60;55.12
62680;BME280;68213;40.528;44.712;2023-03-13T03:44:17;80320.47;;;2.64;54.74
62680;BME280;68213;40.528;44.712;2023-03-13T03:45:17;80315.88;;;2.72;54.32
62680;BME280;68213;40.528;44.712;2023-03-13T03:46:18;80319.59;;;2.79;54.15
62680;BME280;68213;40.528;44.712;2023-03-13T03:47:19;80316.19;;;2.76;53.97
62680;BME280;68213;40.528;44.712;2023-03-13T03:48:19;80312.81;;;2.83;53.80
62680;BME280;68213;40.528;44.712;2023-03-13T03:49:20;80307.78;;;2.85;54.03
62680;BME280;68213;40.528;44.712;2023-03-13T03:50:21;80308.75;;;2.90;54.08
62680;BME280;68213;40.528;44.712;2023-03-13T03:51:21;80313.25;;;2.90;53.91
62680;BME280;68213;40.528;44.712;2023-03-13T03:52:22;80320.88;;;2.88;54.11
62680;BME280;68213;40.528;44.712;2023-03-13T03:53:24;80285.38;;;2.63;54.10
62680;BME280;68213;40.528;44.712;2023-03-13T03:54:25;80319.91;;;2.83;53.71
62680;BME280;68213;40.528;44.712;2023-03-13T03:55:26;80314.22;;;2.94;53.59
62680;BME280;68213;40.528;44.712;2023-03-13T03:56:27;80319.47;;;3.04;53.27
62680;BME280;68213;40.528;44.712;2023-03-13T03:57:30;80318.16;;;3.13;53.10
62680;BME280;68213;40.528;44.712;2023-03-13T03:58:30;80311.88;;;3.16;52.90
62680;BME280;68213;40.528;44.712;2023-03-13T03:59:31;80311.94;;;3.26;52.81
62680;BME280;68213;40.528;44.712;2023-03-13T04:00:32;80321.28;;;3.39;52.28
62680;BME280;68213;40.528;44.712;2023-03-13T04:01:32;80307.34;;;3.44;51.84
62680;BME280;68213;40.528;44.712;2023-03-13T04:02:33;80321.75;;;3.55;51.60
62680;BME280;68213;40.528;44.712;2023-03-13T04:03:34;80319.22;;;3.64;51.08
62680;BME280;68213;40.528;44.712;2023-03-13T04:04:34;80320.47;;;3.73;51.28
62680;BME280;68213;40.528;44.712;2023-03-13T04:05:35;80315.94;;;3.74;51.18
62680;BME280;68213;40.528;44.712;2023-03-13T04:06:36;80321.28;;;3.76;51.18
62680;BME280;68213;40.528;44.712;2023-03-13T04:07:36;80318.97;;;3.80;50.98
62680;BME280;68213;40.528;44.712;2023-03-13T04:08:37;80322.41;;;3.83;50.69
62680;BME280;68213;40.528;44.712;2023-03-13T04:09:38;80320.38;;;3.91;50.33
62680;BME280;68213;40.528;44.712;2023-03-13T04:10:38;80326.69;;;3.97;50.53
62680;BME280;68213;40.528;44.712;2023-03-13T04:11:39;80319.84;;;4.02;50.23
62680;BME280;68213;40.528;44.712;2023-03-13T04:12:40;80321.25;;;4.13;49.82
62680;BME280;68213;40.528;44.712;2023-03-13T04:13:40;80315.22;;;4.20;49.71
62680;BME280;68213;40.528;44.712;2023-03-13T04:14:41;80318.81;;;4.35;49.42
62680;BME280;68213;40.528;44.712;2023-03-13T04:15:42;80310.34;;;4.44;49.38
62680;BME280;68213;40.528;44.712;2023-03-13T04:16:43;80314.16;;;4.53;49.22
62680;BME280;68213;40.528;44.712;2023-03-13T04:17:43;80315.94;;;4.60;49.64
62680;BME280;68213;40.528;44.712;2023-03-13T04:18:44;80320.91;;;4.66;48.63
62680;BME280;68213;40.528;44.712;2023-03-13T04:19:45;80319.25;;;4.70;48.40
62680;BME280;68213;40.528;44.712;2023-03-13T04:20:45;80321.59;;;4.76;48.52
62680;BME280;68213;40.528;44.712;2023-03-13T04:21:46;80316.91;;;4.74;48.43
62680;BME280;68213;40.528;44.712;2023-03-13T04:22:46;80311.84;;;4.76;48.14
62680;BME280;68213;40.528;44.712;2023-03-13T04:23:47;80317.31;;;4.81;48.00
62680;BME280;68213;40.528;44.712;2023-03-13T04:24:48;80316.91;;;4.84;47.88
62680;BME280;68213;40.528;44.712;2023-03-13T04:25:48;80309.53;;;4.90;47.45
62680;BME280;68213;40.528;44.712;2023-03-13T04:26:51;80309.22;;;4.96;47.55
62680;BME280;68213;40.528;44.712;2023-03-13T04:27:51;80305.69;;;5.01;47.54
62680;BME280;68213;40.528;44.712;2023-03-13T04:28:52;80308.69;;;5.07;47.59
62680;BME280;68213;40.528;44.712;2023-03-13T04:29:56;80311.69;;;5.14;47.19
62680;BME280;68213;40.528;44.712;2023-03-13T04:30:59;80314.69;;;5.20;46.81
62680;BME280;68213;40.528;44.712;2023-03-13T04:32:01;80303.31;;;5.15;46.96
62680;BME280;68213;40.528;44.712;2023-03-13T04:33:02;80316.75;;;5.31;46.55
62680;BME280;68213;40.528;44.712;2023-03-13T04:34:02;80313.16;;;5.36;46.60
62680;BME280;68213;40.528;44.712;2023-03-13T04:35:03;80301.75;;;5.42;46.31
62680;BME280;68213;40.528;44.712;2023-03-13T04:36:04;80297.63;;;5.48;47.06
62680;BME280;68213;40.528;44.712;2023-03-13T04:37:06;80270.91;;;5.28;47.03
62680;BME280;68213;40.528;44.712;2023-03-13T04:38:07;80303.22;;;5.54;47.06
62680;BME280;68213;40.528;44.712;2023-03-13T04:39:07;80301.72;;;5.61;47.04
62680;BME280;68213;40.528;44.712;2023-03-13T04:40:08;80308.69;;;5.68;46.72
62680;BME280;68213;40.528;44.712;2023-03-13T04:41:09;80303.84;;;5.75;46.97
62680;BME280;68213;40.528;44.712;2023-03-13T04:42:11;80292.31;;;5.78;46.85
62680;BME280;68213;40.528;44.712;2023-03-13T04:43:11;80293.38;;;5.84;46.51
62680;BME280;68213;40.528;44.712;2023-03-13T04:44:12;80288.00;;;5.92;46.17
62680;BME280;68213;40.528;44.712;2023-03-13T04:45:13;80300.59;;;5.96;46.09
62680;BME280;68213;40.528;44.712;2023-03-13T04:46:13;80291.97;;;6.03;46.13
62680;BME280;68213;40.528;44.712;2023-03-13T04:47:14;80298.25;;;6.10;46.13
62680;BME280;68213;40.528;44.712;2023-03-13T04:48:14;80301.22;;;6.16;45.91
62680;BME280;68213;40.528;44.712;2023-03-13T04:49:15;80297.75;;;6.23;45.38
62680;BME280;68213;40.528;44.712;2023-03-13T04:50:16;80296.78;;;6.28;45.05
62680;BME280;68213;40.528;44.712;2023-03-13T04:51:17;80298.41;;;6.33;44.87
62680;BME280;68213;40.528;44.712;2023-03-13T04:52:17;80303.75;;;6.35;44.80
62680;BME280;68213;40.528;44.712;2023-03-13T04:53:18;80300.72;;;6.39;44.83
62680;BME280;68213;40.528;44.712;2023-03-13T04:54:19;80305.81;;;6.37;46.33
62680;BME280;68213;40.528;44.712;2023-03-13T04:55:20;80308.53;;;6.17;47.94
62680;BME280;68213;40.528;44.712;2023-03-13T04:56:23;80304.41;;;6.14;48.26
62680;BME280;68213;40.528;44.712;2023-03-13T04:57:24;80304.31;;;6.02;48.69
62680;BME280;68213;40.528;44.712;2023-03-13T04:58:24;80313.53;;;5.94;48.94
62680;BME280;68213;40.528;44.712;2023-03-13T04:59:25;80315.44;;;5.93;49.20
62680;BME280;68213;40.528;44.712;2023-03-13T05:00:25;80320.91;;;5.66;49.58
62680;BME280;68213;40.528;44.712;2023-03-13T05:01:26;80317.03;;;5.16;50.96
62680;BME280;68213;40.528;44.712;2023-03-13T05:02:27;80322.53;;;4.81;51.76
62680;BME280;68213;40.528;44.712;2023-03-13T05:03:27;80321.31;;;4.52;52.45
62680;BME280;68213;40.528;44.712;2023-03-13T05:04:28;80325.56;;;4.67;51.58
62680;BME280;68213;40.528;44.712;2023-03-13T05:05:29;80326.25;;;4.68;51.47
62680;BME280;68213;40.528;44.712;2023-03-13T05:06:29;80301.97;;;4.45;51.57
62680;BME280;68213;40.528;44.712;2023-03-13T05:07:30;80326.50;;;4.72;51.60
62680;BME280;68213;40.528;44.712;2023-03-13T05:08:31;80332.28;;;4.70;51.71
62680;BME280;68213;40.528;44.712;2023-03-13T05:09:31;80332.53;;;4.55;52.22
62680;BME280;68213;40.528;44.712;2023-03-13T05:10:32;80325.28;;;4.63;51.91
62680;BME280;68213;40.528;44.712;2023-03-13T05:11:33;80333.66;;;4.62;52.20
62680;BME280;68213;40.528;44.712;2023-03-13T05:12:33;80307.19;;;4.45;52.30
62680;BME280;68213;40.528;44.712;2023-03-13T05:13:36;80326.38;;;4.60;52.30
62680;BME280;68213;40.528;44.712;2023-03-13T05:14:37;80329.78;;;4.63;52.15
62680;BME280;68213;40.528;44.712;2023-03-13T05:15:37;80327.63;;;4.69;51.49
62680;BME280;68213;40.528;44.712;2023-03-13T05:16:38;80310.75;;;4.50;51.55
62680;BME280;68213;40.528;44.712;2023-03-13T05:17:38;80339.94;;;4.68;51.70
62680;BME280;68213;40.528;44.712;2023-03-13T05:18:39;80340.91;;;4.63;51.71
62680;BME280;68213;40.528;44.712;2023-03-13T05:19:40;80333.66;;;4.62;51.68
62680;BME280;68213;40.528;44.712;2023-03-13T05:20:40;80343.25;;;4.69;51.25
62680;BME280;68213;40.528;44.712;2023-03-13T05:21:41;80342.41;;;4.66;51.33
62680;BME280;68213;40.528;44.712;2023-03-13T05:22:42;80342.00;;;4.80;51.12
62680;BME280;68213;40.528;44.712;2023-03-13T05:23:42;80342.84;;;4.92;50.66
62680;BME280;68213;40.528;44.712;2023-03-13T05:24:43;80345.97;;;5.00;50.30
62680;BME280;68213;40.528;44.712;2023-03-13T05:25:43;80331.31;;;5.15;49.87
62680;BME280;68213;40.528;44.712;2023-03-13T05:26:44;80337.16;;;5.25;49.30
62680;BME280;68213;40.528;44.712;2023-03-13T05:27:47;80314.97;;;5.14;50.22
62680;BME280;68213;40.528;44.712;2023-03-13T05:28:47;80332.78;;;5.37;49.46
62680;BME280;68213;40.528;44.712;2023-03-13T05:29:48;80329.63;;;5.29;49.79
62680;BME280;68213;40.528;44.712;2023-03-13T05:30:49;80328.13;;;5.36;49.81
62680;BME280;68213;40.528;44.712;2023-03-13T05:31:49;80333.31;;;5.46;49.53
62680;BME280;68213;40.528;44.712;2023-03-13T05:32:50;80333.72;;;5.52;49.62
62680;BME280;68213;40.528;44.712;2023-03-13T05:33:50;80330.69;;;5.55;49.58
62680;BME280;68213;40.528;44.712;2023-03-13T05:34:51;80309.31;;;5.37;49.29
62680;BME280;68213;40.528;44.712;2023-03-13T05:35:52;80322.97;;;5.67;48.60
62680;BME280;68213;40.528;44.712;2023-03-13T05:36:53;80335.13;;;5.84;48.35